createdAt,value
2022-10-28T00:00:29.273Z,27.58
2022-10-28T00:01:04.508Z,23.67
2022-10-28T00:01:36.530Z,26.10
2022-10-28T00:02:09.397Z,18.83
2022-10-28T00:02:41.279Z,21.75
2022-10-28T00:03:13.165Z,15.30
2022-10-28T00:03:49.697Z,16.23
2022-10-28T00:04:21.736Z,18.75
2022-10-28T00:04:53.566Z,9.60
2022-10-28T00:05:26.319Z,15.95
2022-10-28T00:06:02.934Z,16.25
2022-10-28T00:06:37.566Z,13.68
2022-10-28T00:07:09.381Z,14.18
2022-10-28T00:07:41.218Z,19.10
2022-10-28T00:08:13.058Z,18.85
2022-10-28T00:08:46.557Z,15.90
2022-10-28T00:09:18.422Z,14.13
2022-10-28T00:09:51.598Z,13.85
2022-10-28T00:10:24.384Z,14.70
2022-10-28T00:11:02.821Z,13.80
2022-10-28T00:11:35.155Z,14.60
2022-10-28T00:12:08.151Z,14.85
2022-10-28T00:12:40.033Z,13.43
2022-10-28T00:13:11.828Z,5.72
2022-10-28T00:13:46.074Z,9.93
2022-10-28T00:14:17.844Z,8.52
2022-10-28T00:14:49.685Z,9.95
2022-10-28T00:15:22.563Z,10.57
2022-10-28T00:15:54.373Z,12.38
2022-10-28T00:16:28.238Z,11.98
2022-10-28T00:17:01.082Z,11.05
2022-10-28T00:17:32.849Z,11.20
2022-10-28T00:18:04.685Z,8.25
2022-10-28T00:18:36.684Z,6.30
2022-10-28T00:19:12.823Z,5.40
2022-10-28T00:19:44.603Z,5.53
2022-10-28T00:20:16.545Z,5.80
2022-10-28T00:20:49.289Z,5.22
2022-10-28T00:21:23.651Z,4.75
2022-10-28T00:21:55.482Z,4.22
2022-10-28T00:22:28.936Z,4.63
2022-10-28T00:23:00.724Z,4.82
2022-10-28T00:23:32.514Z,4.82
2022-10-28T00:24:06.428Z,4.97
2022-10-28T00:24:38.226Z,4.95
2022-10-28T00:25:11.680Z,4.68
2022-10-28T00:25:43.485Z,5.18
2022-10-28T00:26:19.473Z,3.90
2022-10-28T00:26:51.290Z,4.60
2022-10-28T00:27:23.171Z,4.25
2022-10-28T00:27:56.227Z,3.58
2022-10-28T00:28:28.149Z,4.53
2022-10-28T00:29:02.140Z,4.05
2022-10-28T00:29:34.970Z,5.90
2022-10-28T00:30:07.809Z,3.35
2022-10-28T00:30:39.610Z,4.50
2022-10-28T00:31:14.122Z,3.90
2022-10-28T00:31:47.050Z,3.33
2022-10-28T00:32:18.883Z,5.30
2022-10-28T00:32:51.914Z,3.90
2022-10-28T00:33:23.892Z,3.95
2022-10-28T00:33:57.716Z,3.63
2022-10-28T00:34:30.626Z,3.67
2022-10-28T00:35:02.388Z,3.17
2022-10-28T00:35:34.161Z,3.13
2022-10-28T00:36:12.713Z,3.35
2022-10-28T00:36:46.377Z,4.38
2022-10-28T00:37:19.132Z,4.35
2022-10-28T00:37:53.305Z,3.55
2022-10-28T00:38:25.162Z,3.95
2022-10-28T00:38:58.128Z,3.70
2022-10-28T00:39:30.108Z,3.63
2022-10-28T00:40:01.883Z,4.20
2022-10-28T00:40:36.849Z,3.90
2022-10-28T00:41:09.644Z,3.72
2022-10-28T00:41:44.477Z,3.47
2022-10-28T00:42:21.498Z,4.47
2022-10-28T00:42:53.670Z,3.20
2022-10-28T00:43:35.207Z,3.88
2022-10-28T00:44:41.531Z,3.28
2022-10-28T00:45:13.302Z,4.43
2022-10-28T00:45:45.113Z,4.30
2022-10-28T00:46:26.752Z,4.05
2022-10-28T00:46:58.833Z,4.28
2022-10-28T00:47:44.200Z,3.58
2022-10-28T00:48:17.014Z,2.75
2022-10-28T00:48:54.746Z,3.28
2022-10-28T00:49:30.140Z,3.97
2022-10-28T00:50:20.047Z,3.13
2022-10-28T00:50:51.957Z,3.53
2022-10-28T00:51:25.769Z,3.42
2022-10-28T00:52:03.443Z,3.72
2022-10-28T00:52:35.527Z,3.70
2022-10-28T00:53:11.298Z,3.30
2022-10-28T00:53:48.051Z,3.63
2022-10-28T00:54:20.892Z,3.85
2022-10-28T00:54:53.797Z,2.83
2022-10-28T00:55:27.330Z,2.78
2022-10-28T00:56:03.216Z,4.18
2022-10-28T00:56:38.979Z,3.85
2022-10-28T00:57:16.053Z,3.10
2022-10-28T00:57:48.014Z,3.47
2022-10-28T00:58:22.988Z,3.80
2022-10-28T00:58:59.089Z,3.70
2022-10-28T00:59:34.988Z,3.60
2022-10-28T01:00:08.591Z,3.40
2022-10-28T01:00:41.590Z,3.42
2022-10-28T01:01:13.417Z,3.38
2022-10-28T01:01:45.863Z,2.72
2022-10-28T01:02:18.325Z,3.80
2022-10-28T01:02:52.008Z,2.78
2022-10-28T01:03:23.861Z,3.40
2022-10-28T01:03:58.028Z,4.22
2022-10-28T01:04:29.878Z,3.35
2022-10-28T01:05:01.894Z,3.47
2022-10-28T01:05:36.940Z,4.10
2022-10-28T01:06:10.083Z,3.20
2022-10-28T01:06:42.465Z,3.45
2022-10-28T01:07:15.786Z,3.35
2022-10-28T01:07:49.067Z,3.50
2022-10-28T01:08:20.856Z,3.53
2022-10-28T01:08:57.526Z,3.60
2022-10-28T01:09:31.838Z,3.53
2022-10-28T01:10:04.069Z,4.05
2022-10-28T01:10:52.774Z,3.10
2022-10-28T01:11:45.645Z,3.08
2022-10-28T01:12:29.663Z,2.72
2022-10-28T01:13:11.273Z,3.35
2022-10-28T01:13:55.748Z,3.33
2022-10-28T01:14:42.837Z,3.60
2022-10-28T01:15:25.008Z,3.10
2022-10-28T01:16:04.135Z,2.70
2022-10-28T01:16:46.305Z,2.80
2022-10-28T01:17:36.955Z,2.72
2022-10-28T01:18:19.114Z,3.00
2022-10-28T01:19:06.559Z,3.55
2022-10-28T01:20:13.421Z,3.13
2022-10-28T01:21:19.846Z,3.80
2022-10-28T01:22:07.038Z,3.13
2022-10-28T01:22:45.775Z,3.05
2022-10-28T01:23:26.391Z,2.80
2022-10-28T01:24:12.526Z,3.47
2022-10-28T01:25:12.732Z,3.03
2022-10-28T01:26:15.873Z,3.67
2022-10-28T01:27:07.268Z,2.83
2022-10-28T01:28:14.970Z,4.82
2022-10-28T01:29:13.582Z,3.88
2022-10-28T01:30:02.788Z,3.75
2022-10-28T01:30:48.323Z,3.25
2022-10-28T01:31:29.324Z,3.72
2022-10-28T01:32:09.573Z,3.15
2022-10-28T01:32:52.137Z,2.90
2022-10-28T01:33:31.708Z,3.40
2022-10-28T01:34:11.741Z,3.80
2022-10-28T01:34:52.864Z,2.83
2022-10-28T01:35:31.854Z,3.00
2022-10-28T01:36:11.046Z,2.65
2022-10-28T01:36:54.655Z,3.55
2022-10-28T01:37:35.311Z,3.70
2022-10-28T01:38:23.400Z,3.65
2022-10-28T01:39:01.238Z,3.10
2022-10-28T01:39:41.331Z,3.58
2022-10-28T01:40:20.498Z,4.25
2022-10-28T01:40:57.747Z,3.38
2022-10-28T01:41:35.107Z,3.58
2022-10-28T01:42:18.716Z,2.97
2022-10-28T01:42:56.550Z,3.63
2022-10-28T01:43:32.692Z,3.53
2022-10-28T01:44:11.306Z,3.42
2022-10-28T01:44:49.990Z,3.25
2022-10-28T01:45:27.706Z,2.50
2022-10-28T01:46:04.109Z,2.85
2022-10-28T01:46:42.227Z,2.60
2022-10-28T01:47:17.781Z,3.10
2022-10-28T01:47:56.274Z,3.47
2022-10-28T01:48:35.321Z,3.22
2022-10-28T01:49:13.237Z,2.63
2022-10-28T01:49:49.241Z,3.17
2022-10-28T01:50:25.614Z,2.78
2022-10-28T01:51:04.593Z,3.25
2022-10-28T01:51:41.774Z,2.63
2022-10-28T01:52:16.795Z,3.25
2022-10-28T01:52:52.015Z,2.55
2022-10-28T01:53:30.207Z,2.85
2022-10-28T01:54:06.337Z,2.80
2022-10-28T01:54:41.481Z,2.88
2022-10-28T01:55:17.801Z,2.70
2022-10-28T01:55:53.832Z,2.60
2022-10-28T01:56:30.195Z,2.85
2022-10-28T01:57:04.788Z,2.70
2022-10-28T01:57:38.945Z,2.40
2022-10-28T01:58:16.027Z,3.15
2022-10-28T01:58:49.954Z,3.05
2022-10-28T01:59:25.415Z,3.25
2022-10-28T01:59:58.843Z,2.75
2022-10-28T02:00:32.814Z,2.40
2022-10-28T02:01:07.792Z,3.13
2022-10-28T02:01:42.407Z,2.58
2022-10-28T02:02:15.273Z,3.03
2022-10-28T02:02:48.041Z,2.80
2022-10-28T02:03:21.029Z,2.85
2022-10-28T02:03:53.729Z,2.80
2022-10-28T02:04:25.565Z,2.78
2022-10-28T02:05:05.739Z,2.85
2022-10-28T02:05:41.165Z,2.20
2022-10-28T02:06:17.684Z,2.72
2022-10-28T02:06:54.183Z,2.03
2022-10-28T02:07:26.018Z,2.33
2022-10-28T02:08:03.749Z,2.10
2022-10-28T02:08:52.901Z,2.65
2022-10-28T02:09:39.103Z,2.28
2022-10-28T02:10:17.426Z,3.10
2022-10-28T02:11:13.441Z,2.35
2022-10-28T02:12:20.168Z,2.88
2022-10-28T02:12:56.066Z,42.35
2022-10-28T02:13:39.042Z,43.70
2022-10-28T02:14:22.266Z,38.30
2022-10-28T02:15:20.472Z,23.17
2022-10-28T02:15:59.694Z,14.75
2022-10-28T02:16:39.388Z,7.10
2022-10-28T02:17:20.733Z,5.60
2022-10-28T02:18:17.405Z,3.65
2022-10-28T02:18:57.399Z,3.50
2022-10-28T02:19:37.286Z,3.00
2022-10-28T02:20:18.006Z,3.15
2022-10-28T02:20:53.354Z,2.65
2022-10-28T02:21:32.416Z,3.00
2022-10-28T02:22:15.180Z,2.40
2022-10-28T02:22:50.885Z,1.95
2022-10-28T02:23:31.759Z,2.40
2022-10-28T02:24:10.687Z,1.85
2022-10-28T02:24:52.599Z,2.60
2022-10-28T02:25:31.408Z,2.60
2022-10-28T02:26:10.940Z,2.30
2022-10-28T02:26:51.872Z,2.35
2022-10-28T02:27:33.929Z,2.20
2022-10-28T02:28:55.580Z,3.38
2022-10-28T02:29:31.627Z,2.67
2022-10-28T02:30:08.568Z,2.95
2022-10-28T02:30:46.307Z,2.83
2022-10-28T02:31:23.861Z,1.95
2022-10-28T02:32:01.073Z,2.38
2022-10-28T02:32:38.694Z,1.88
2022-10-28T02:33:13.086Z,2.47
2022-10-28T02:33:51.178Z,2.47
2022-10-28T02:34:27.013Z,2.15
2022-10-28T02:35:01.048Z,3.00
2022-10-28T02:35:40.209Z,3.00
2022-10-28T02:36:14.784Z,2.30
2022-10-28T02:36:52.200Z,3.65
2022-10-28T02:37:28.433Z,2.47
2022-10-28T02:38:06.624Z,2.90
2022-10-28T02:38:42.547Z,2.42
2022-10-28T02:39:17.581Z,2.33
2022-10-28T02:39:54.206Z,2.20
2022-10-28T02:40:29.368Z,2.40
2022-10-28T02:41:06.153Z,2.38
2022-10-28T02:41:44.539Z,2.13
2022-10-28T02:42:21.465Z,2.90
2022-10-28T02:42:59.097Z,2.42
2022-10-28T02:43:35.245Z,2.65
2022-10-28T02:44:11.977Z,2.60
2022-10-28T02:44:49.825Z,2.15
2022-10-28T02:45:25.484Z,2.28
2022-10-28T02:46:00.591Z,2.72
2022-10-28T02:46:36.197Z,2.97
2022-10-28T02:47:16.974Z,2.60
2022-10-28T02:47:55.435Z,2.20
2022-10-28T02:48:31.632Z,2.65
2022-10-28T02:49:06.730Z,2.35
2022-10-28T02:49:44.554Z,2.72
2022-10-28T02:50:20.330Z,2.90
2022-10-28T02:50:57.745Z,2.42
2022-10-28T02:51:35.519Z,2.45
2022-10-28T02:52:08.025Z,2.60
2022-10-28T02:52:42.430Z,2.10
2022-10-28T02:53:19.892Z,2.10
2022-10-28T02:53:59.468Z,2.13
2022-10-28T02:54:37.182Z,2.55
2022-10-28T02:55:09.351Z,2.75
2022-10-28T02:55:44.254Z,2.58
2022-10-28T02:56:18.325Z,2.83
2022-10-28T02:56:55.430Z,1.90
2022-10-28T02:57:29.976Z,2.78
2022-10-28T02:58:02.901Z,2.22
2022-10-28T02:58:39.073Z,2.15
2022-10-28T02:59:12.414Z,2.90
2022-10-28T02:59:52.057Z,2.50
2022-10-28T03:00:24.963Z,2.65
2022-10-28T03:00:56.808Z,3.05
2022-10-28T03:01:29.962Z,2.97
2022-10-28T03:02:02.057Z,2.35
2022-10-28T03:02:34.313Z,3.03
2022-10-28T03:03:08.413Z,2.72
2022-10-28T03:03:40.645Z,3.25
2022-10-28T03:04:12.427Z,2.45
2022-10-28T03:04:45.271Z,2.75
2022-10-28T03:05:17.509Z,2.95
2022-10-28T03:05:49.256Z,2.80
2022-10-28T03:06:22.107Z,2.90
2022-10-28T03:06:53.949Z,2.15
2022-10-28T03:07:25.740Z,3.90
2022-10-28T03:07:58.513Z,2.03
2022-10-28T03:08:30.285Z,2.40
2022-10-28T03:09:02.069Z,2.33
2022-10-28T03:09:34.833Z,2.67
2022-10-28T03:10:07.433Z,1.83
2022-10-28T03:10:39.186Z,2.03
2022-10-28T03:11:10.971Z,3.10
2022-10-28T03:11:43.771Z,3.55
2022-10-28T03:12:15.629Z,2.50
2022-10-28T03:12:47.418Z,2.30
2022-10-28T03:13:20.263Z,2.53
2022-10-28T03:13:52.053Z,3.10
2022-10-28T03:14:23.860Z,2.15
2022-10-28T03:14:56.648Z,2.38
2022-10-28T03:15:28.464Z,2.50
2022-10-28T03:16:00.233Z,2.72
2022-10-28T03:16:33.247Z,2.35
2022-10-28T03:17:05.162Z,2.20
2022-10-28T03:17:36.973Z,2.50
2022-10-28T03:18:11.083Z,2.42
2022-10-28T03:18:43.073Z,2.70
2022-10-28T03:19:14.872Z,2.80
2022-10-28T03:19:47.652Z,2.40
2022-10-28T03:20:19.441Z,2.10
2022-10-28T03:20:54.267Z,2.65
2022-10-28T03:21:28.636Z,2.92
2022-10-28T03:22:01.502Z,2.45
2022-10-28T03:22:36.053Z,3.35
2022-10-28T03:23:07.833Z,2.88
2022-10-28T03:23:40.582Z,2.60
2022-10-28T03:24:12.421Z,3.35
2022-10-28T03:24:44.173Z,2.60
2022-10-28T03:25:17.097Z,2.50
2022-10-28T03:25:48.910Z,2.47
2022-10-28T03:26:20.748Z,2.42
2022-10-28T03:26:53.497Z,2.40
2022-10-28T03:27:25.323Z,2.78
2022-10-28T03:27:57.152Z,2.67
2022-10-28T03:28:29.980Z,2.63
2022-10-28T03:29:01.796Z,2.47
2022-10-28T03:29:33.569Z,2.63
2022-10-28T03:30:07.601Z,2.60
2022-10-28T03:30:39.454Z,2.53
2022-10-28T03:31:11.257Z,2.20
2022-10-28T03:31:43.304Z,2.15
2022-10-28T03:32:16.109Z,2.95
2022-10-28T03:32:47.939Z,2.30
2022-10-28T03:33:21.189Z,2.67
2022-10-28T03:33:53.962Z,2.63
2022-10-28T03:34:25.802Z,2.90
2022-10-28T03:34:57.637Z,2.17
2022-10-28T03:35:30.420Z,2.63
2022-10-28T03:36:02.219Z,2.58
2022-10-28T03:36:34.982Z,3.00
2022-10-28T03:37:07.007Z,2.45
2022-10-28T03:37:41.528Z,3.10
2022-10-28T03:38:14.346Z,2.65
2022-10-28T03:38:46.164Z,2.28
2022-10-28T03:39:18.005Z,2.72
2022-10-28T03:39:50.862Z,2.95
2022-10-28T03:40:22.669Z,2.50
2022-10-28T03:40:54.546Z,2.90
2022-10-28T03:41:27.305Z,3.10
2022-10-28T03:41:59.119Z,2.92
2022-10-28T03:42:30.900Z,2.58
2022-10-28T03:43:03.684Z,3.38
2022-10-28T03:43:35.474Z,2.60
2022-10-28T03:44:07.405Z,2.70
2022-10-28T03:44:40.235Z,2.85
2022-10-28T03:45:12.111Z,2.70
2022-10-28T03:45:43.992Z,2.95
2022-10-28T03:46:15.793Z,2.33
2022-10-28T03:46:48.556Z,2.72
2022-10-28T03:47:20.346Z,2.55
2022-10-28T03:47:52.483Z,2.90
2022-10-28T03:48:26.922Z,3.30
2022-10-28T03:48:58.721Z,2.80
2022-10-28T03:49:30.503Z,2.53
2022-10-28T03:50:02.472Z,2.80
2022-10-28T03:50:35.279Z,2.50
2022-10-28T03:51:07.269Z,2.97
2022-10-28T03:51:39.114Z,2.45
2022-10-28T03:52:11.914Z,3.10
2022-10-28T03:52:44.195Z,3.25
2022-10-28T03:53:15.968Z,2.65
2022-10-28T03:53:47.736Z,2.78
2022-10-28T03:54:20.513Z,2.97
2022-10-28T03:54:52.323Z,2.90
2022-10-28T03:55:25.597Z,2.38
2022-10-28T03:56:00.239Z,2.72
2022-10-28T03:56:32.013Z,2.22
2022-10-28T03:57:03.873Z,3.13
2022-10-28T03:57:36.660Z,4.15
2022-10-28T03:58:08.428Z,2.60
2022-10-28T03:58:41.409Z,2.55
2022-10-28T03:59:16.412Z,1.98
2022-10-28T03:59:51.113Z,2.50
2022-10-28T04:00:22.894Z,2.72
2022-10-28T04:00:57.255Z,2.63
2022-10-28T04:01:29.224Z,3.30
2022-10-28T04:02:01.240Z,2.30
2022-10-28T04:02:34.138Z,2.10
2022-10-28T04:03:05.977Z,2.33
2022-10-28T04:03:39.584Z,2.53
2022-10-28T04:04:12.380Z,1.95
2022-10-28T04:04:44.184Z,2.63
2022-10-28T04:05:16.270Z,2.92
2022-10-28T04:05:49.545Z,2.60
2022-10-28T04:06:21.373Z,2.15
2022-10-28T04:06:53.149Z,2.10
2022-10-28T04:07:26.018Z,2.70
2022-10-28T04:07:57.777Z,2.40
2022-10-28T04:08:29.561Z,2.35
2022-10-28T04:09:01.365Z,2.28
2022-10-28T04:09:34.204Z,2.17
2022-10-28T04:10:06.693Z,2.53
2022-10-28T04:10:38.478Z,2.58
2022-10-28T04:11:11.228Z,2.40
2022-10-28T04:11:43.104Z,2.67
2022-10-28T04:12:14.908Z,2.13
2022-10-28T04:12:47.655Z,2.35
2022-10-28T04:13:19.513Z,2.15
2022-10-28T04:13:51.399Z,2.00
2022-10-28T04:14:24.175Z,2.20
2022-10-28T04:14:56.038Z,3.08
2022-10-28T04:15:27.807Z,2.50
2022-10-28T04:16:01.882Z,1.92
2022-10-28T04:16:33.698Z,2.35
2022-10-28T04:17:05.439Z,2.50
2022-10-28T04:17:38.184Z,2.70
2022-10-28T04:18:10.433Z,2.80
2022-10-28T04:18:43.572Z,2.75
2022-10-28T04:19:16.354Z,2.30
2022-10-28T04:19:48.149Z,2.70
2022-10-28T04:20:20.030Z,3.80
2022-10-28T04:20:52.816Z,2.20
2022-10-28T04:21:24.716Z,2.38
2022-10-28T04:21:56.518Z,2.33
2022-10-28T04:22:29.241Z,3.25
2022-10-28T04:23:01.492Z,2.60
2022-10-28T04:23:34.527Z,2.55
2022-10-28T04:24:06.597Z,2.70
2022-10-28T04:24:38.433Z,3.75
2022-10-28T04:25:12.552Z,3.00
2022-10-28T04:25:44.624Z,2.22
2022-10-28T04:26:16.449Z,2.83
2022-10-28T04:26:49.237Z,2.08
2022-10-28T04:27:21.029Z,2.67
2022-10-28T04:27:53.203Z,2.20
2022-10-28T04:28:26.176Z,2.40
2022-10-28T04:28:57.945Z,2.08
2022-10-28T04:29:29.781Z,2.13
2022-10-28T04:30:02.596Z,2.30
2022-10-28T04:30:34.393Z,2.00
2022-10-28T04:31:06.214Z,3.15
2022-10-28T04:31:38.998Z,2.40
2022-10-28T04:32:10.775Z,2.63
2022-10-28T04:32:43.365Z,2.50
2022-10-28T04:33:16.388Z,2.53
2022-10-28T04:33:49.508Z,2.33
2022-10-28T04:34:21.316Z,2.10
2022-10-28T04:34:54.081Z,2.28
2022-10-28T04:35:26.364Z,2.70
2022-10-28T04:35:58.396Z,1.92
2022-10-28T04:36:31.173Z,2.95
2022-10-28T04:37:02.976Z,2.10
2022-10-28T04:37:34.770Z,2.88
2022-10-28T04:38:07.514Z,2.33
2022-10-28T04:38:39.273Z,3.20
2022-10-28T04:39:11.067Z,2.10
2022-10-28T04:39:43.856Z,3.08
2022-10-28T04:40:15.933Z,2.45
2022-10-28T04:40:48.329Z,3.58
2022-10-28T04:41:21.106Z,2.30
2022-10-28T04:41:53.076Z,2.40
2022-10-28T04:42:24.977Z,2.70
2022-10-28T04:42:57.814Z,2.58
2022-10-28T04:43:29.608Z,2.60
2022-10-28T04:44:01.413Z,2.92
2022-10-28T04:44:33.274Z,2.33
2022-10-28T04:45:06.971Z,2.20
2022-10-28T04:45:39.136Z,2.35
2022-10-28T04:46:10.944Z,2.35
2022-10-28T04:46:43.710Z,2.20
2022-10-28T04:47:16.268Z,2.00
2022-10-28T04:47:48.090Z,2.80
2022-10-28T04:48:21.165Z,2.47
2022-10-28T04:48:54.341Z,2.15
2022-10-28T04:49:26.128Z,3.33
2022-10-28T04:49:58.911Z,1.88
2022-10-28T04:50:30.736Z,1.80
2022-10-28T04:51:03.118Z,1.95
2022-10-28T04:51:35.968Z,2.47
2022-10-28T04:52:09.741Z,2.38
2022-10-28T04:52:43.886Z,2.08
2022-10-28T04:53:16.618Z,2.90
2022-10-28T04:53:48.405Z,2.60
2022-10-28T04:54:20.179Z,1.80
2022-10-28T04:54:53.737Z,2.22
2022-10-28T04:55:25.524Z,2.85
2022-10-28T04:55:57.928Z,2.10
2022-10-28T04:56:30.958Z,1.88
2022-10-28T04:57:02.998Z,2.42
2022-10-28T04:57:34.767Z,2.35
2022-10-28T04:58:07.665Z,2.15
2022-10-28T04:58:39.522Z,2.30
2022-10-28T04:59:11.437Z,1.98
2022-10-28T04:59:44.247Z,2.45
2022-10-28T05:00:16.366Z,2.15
2022-10-28T05:00:49.176Z,2.00
2022-10-28T05:01:21.143Z,1.77
2022-10-28T05:01:53.135Z,2.05
2022-10-28T05:02:26.063Z,2.05
2022-10-28T05:03:01.393Z,2.15
2022-10-28T05:03:33.477Z,1.67
2022-10-28T05:04:07.761Z,2.53
2022-10-28T05:04:39.561Z,1.60
2022-10-28T05:05:11.482Z,1.80
2022-10-28T05:05:44.283Z,1.90
2022-10-28T05:06:16.118Z,2.25
2022-10-28T05:06:47.953Z,1.80
2022-10-28T05:07:22.845Z,1.77
2022-10-28T05:07:55.933Z,2.00
2022-10-28T05:08:28.178Z,2.50
2022-10-28T05:09:00.902Z,2.13
2022-10-28T05:09:32.689Z,1.92
2022-10-28T05:10:05.160Z,2.17
2022-10-28T05:10:37.953Z,1.92
2022-10-28T05:11:09.861Z,1.90
2022-10-28T05:11:41.838Z,1.95
2022-10-28T05:12:14.580Z,2.17
2022-10-28T05:12:46.699Z,2.15
2022-10-28T05:13:18.566Z,2.22
2022-10-28T05:13:52.956Z,1.80
2022-10-28T05:14:24.830Z,2.53
2022-10-28T05:14:56.594Z,2.63
2022-10-28T05:15:31.215Z,2.60
2022-10-28T05:16:03.148Z,2.50
2022-10-28T05:16:35.883Z,1.88
2022-10-28T05:17:08.846Z,2.15
2022-10-28T05:17:41.110Z,2.70
2022-10-28T05:18:13.854Z,2.20
2022-10-28T05:18:45.699Z,2.65
2022-10-28T05:19:18.907Z,2.60
2022-10-28T05:19:51.654Z,2.10
2022-10-28T05:20:23.774Z,2.40
2022-10-28T05:20:56.847Z,2.35
2022-10-28T05:21:28.707Z,3.13
2022-10-28T05:22:00.461Z,2.40
2022-10-28T05:22:33.205Z,1.95
2022-10-28T05:23:04.969Z,1.55
2022-10-28T05:23:36.791Z,1.83
2022-10-28T05:24:09.940Z,1.90
2022-10-28T05:24:41.776Z,2.70
2022-10-28T05:25:13.771Z,2.13
2022-10-28T05:25:46.559Z,2.10
2022-10-28T05:26:18.333Z,2.33
2022-10-28T05:26:51.127Z,2.00
2022-10-28T05:27:22.900Z,2.22
2022-10-28T05:27:58.250Z,1.80
2022-10-28T05:28:30.985Z,2.30
2022-10-28T05:29:02.813Z,1.92
2022-10-28T05:29:34.646Z,2.10
2022-10-28T05:30:07.930Z,2.22
2022-10-28T05:30:40.727Z,2.00
2022-10-28T05:31:12.558Z,2.50
2022-10-28T05:31:44.349Z,1.90
2022-10-28T05:32:17.157Z,2.45
2022-10-28T05:32:51.526Z,2.00
2022-10-28T05:33:27.359Z,1.85
2022-10-28T05:33:59.172Z,2.90
2022-10-28T05:34:32.408Z,2.35
2022-10-28T05:35:05.747Z,2.30
2022-10-28T05:35:37.727Z,2.38
2022-10-28T05:36:09.737Z,2.47
2022-10-28T05:36:42.555Z,1.88
2022-10-28T05:37:14.438Z,2.00
2022-10-28T05:37:46.308Z,2.08
2022-10-28T05:38:19.213Z,2.30
2022-10-28T05:38:50.985Z,1.92
2022-10-28T05:39:22.786Z,1.83
2022-10-28T05:39:55.532Z,1.80
2022-10-28T05:40:27.308Z,2.00
2022-10-28T05:41:00.142Z,2.33
2022-10-28T05:41:35.152Z,2.55
2022-10-28T05:42:10.627Z,1.75
2022-10-28T05:42:43.259Z,2.20
2022-10-28T05:43:15.048Z,2.25
2022-10-28T05:43:47.796Z,2.35
2022-10-28T05:44:19.591Z,1.80
2022-10-28T05:44:51.382Z,1.77
2022-10-28T05:45:24.230Z,2.25
2022-10-28T05:45:57.637Z,2.33
2022-10-28T05:46:29.441Z,2.33
2022-10-28T05:47:02.234Z,2.78
2022-10-28T05:47:36.443Z,2.25
2022-10-28T05:48:12.024Z,2.13
2022-10-28T05:48:43.951Z,2.70
2022-10-28T05:49:20.181Z,2.30
2022-10-28T05:49:54.297Z,2.58
2022-10-28T05:50:26.640Z,3.25
2022-10-28T05:50:58.421Z,2.63
2022-10-28T05:51:31.245Z,3.63
2022-10-28T05:52:03.335Z,2.83
2022-10-28T05:52:35.138Z,2.22
2022-10-28T05:53:07.926Z,2.45
2022-10-28T05:53:41.816Z,2.20
2022-10-28T05:54:14.552Z,2.92
2022-10-28T05:54:46.310Z,2.70
2022-10-28T05:55:20.288Z,2.20
2022-10-28T05:55:52.098Z,2.35
2022-10-28T05:56:23.981Z,2.70
2022-10-28T05:56:56.945Z,2.42
2022-10-28T05:57:28.777Z,2.42
2022-10-28T05:58:02.959Z,2.22
2022-10-28T05:58:35.042Z,2.88
2022-10-28T05:59:07.095Z,2.75
2022-10-28T05:59:39.877Z,2.30
2022-10-28T06:00:13.614Z,2.90
2022-10-28T06:00:45.395Z,2.28
2022-10-28T06:01:18.250Z,2.65
2022-10-28T06:01:50.151Z,2.55
2022-10-28T06:02:22.964Z,2.30
2022-10-28T06:03:02.938Z,3.05
2022-10-28T06:03:36.041Z,2.65
2022-10-28T06:04:07.926Z,2.53
2022-10-28T06:04:39.806Z,1.88
2022-10-28T06:05:14.256Z,2.88
2022-10-28T06:05:46.403Z,2.50
2022-10-28T06:06:18.303Z,2.58
2022-10-28T06:06:51.089Z,2.40
2022-10-28T06:07:24.500Z,2.80
2022-10-28T06:07:56.328Z,2.00
2022-10-28T06:08:29.091Z,2.65
2022-10-28T06:09:00.916Z,2.20
2022-10-28T06:09:32.873Z,2.05
2022-10-28T06:10:07.530Z,2.60
2022-10-28T06:10:39.920Z,2.40
2022-10-28T06:11:11.150Z,2.17
2022-10-28T06:11:42.964Z,2.92
2022-10-28T06:12:15.745Z,2.08
2022-10-28T06:12:47.646Z,2.28
2022-10-28T06:13:19.818Z,2.20
2022-10-28T06:13:52.558Z,2.60
2022-10-28T06:14:24.379Z,1.55
2022-10-28T06:14:56.249Z,2.80
2022-10-28T06:15:29.014Z,2.22
2022-10-28T06:16:00.845Z,2.38
2022-10-28T06:16:32.665Z,2.13
2022-10-28T06:17:05.413Z,2.33
2022-10-28T06:17:37.234Z,2.92
2022-10-28T06:18:09.072Z,4.82
2022-10-28T06:18:41.899Z,12.60
2022-10-28T06:19:13.672Z,12.95
2022-10-28T06:19:45.450Z,7.70
2022-10-28T06:20:19.684Z,7.05
2022-10-28T06:20:53.167Z,5.63
2022-10-28T06:21:24.980Z,5.80
2022-10-28T06:21:57.785Z,4.47
2022-10-28T06:22:29.618Z,3.42
2022-10-28T06:23:02.409Z,3.72
2022-10-28T06:23:34.275Z,3.20
2022-10-28T06:24:11.246Z,3.13
2022-10-28T06:24:45.023Z,4.05
2022-10-28T06:25:18.474Z,4.45
2022-10-28T06:26:27.245Z,2.97
2022-10-28T06:26:59.036Z,2.78
2022-10-28T06:27:31.809Z,2.88
2022-10-28T06:28:06.918Z,2.10
2022-10-28T06:28:43.029Z,2.63
2022-10-28T06:29:14.868Z,2.28
2022-10-28T06:29:46.850Z,3.10
2022-10-28T06:30:18.736Z,2.40
2022-10-28T06:30:51.523Z,3.00
2022-10-28T06:31:23.285Z,2.70
2022-10-28T06:31:55.097Z,2.80
2022-10-28T06:32:27.860Z,3.35
2022-10-28T06:32:59.637Z,2.50
2022-10-28T06:33:31.594Z,2.80
2022-10-28T06:34:04.385Z,2.40
2022-10-28T06:34:37.555Z,3.03
2022-10-28T06:35:09.335Z,2.38
2022-10-28T06:35:43.614Z,3.20
2022-10-28T06:36:15.405Z,2.60
2022-10-28T06:36:47.205Z,2.72
2022-10-28T06:37:20.219Z,2.67
2022-10-28T06:37:53.500Z,3.08
2022-10-28T06:38:27.360Z,2.65
2022-10-28T06:38:59.361Z,2.80
2022-10-28T06:39:31.630Z,3.35
2022-10-28T06:40:05.543Z,3.20
2022-10-28T06:40:37.377Z,2.95
2022-10-28T06:41:09.230Z,2.60
2022-10-28T06:41:42.162Z,3.20
2022-10-28T06:42:13.971Z,3.88
2022-10-28T06:42:46.067Z,4.05
2022-10-28T06:43:18.862Z,3.00
2022-10-28T06:43:50.639Z,3.08
2022-10-28T06:44:23.567Z,2.53
2022-10-28T06:44:55.439Z,2.92
2022-10-28T06:45:28.802Z,2.30
2022-10-28T06:46:01.760Z,2.55
2022-10-28T06:46:35.269Z,3.47
2022-10-28T06:47:08.039Z,3.70
2022-10-28T06:47:41.540Z,3.00
2022-10-28T06:48:13.656Z,3.83
2022-10-28T06:48:46.384Z,3.55
2022-10-28T06:49:18.210Z,3.30
2022-10-28T06:49:50.042Z,3.00
2022-10-28T06:50:22.809Z,3.38
2022-10-28T06:50:57.602Z,2.80
2022-10-28T06:51:30.823Z,3.05
2022-10-28T06:52:02.667Z,3.20
2022-10-28T06:52:34.606Z,3.05
2022-10-28T06:53:07.375Z,3.70
2022-10-28T06:53:39.207Z,2.97
2022-10-28T06:54:11.906Z,3.45
2022-10-28T06:54:43.717Z,3.80
2022-10-28T06:55:15.584Z,4.80
2022-10-28T06:55:53.528Z,4.63
2022-10-28T06:56:25.513Z,4.45
2022-10-28T06:56:58.586Z,5.20
2022-10-28T06:57:31.219Z,4.72
2022-10-28T06:58:03.914Z,4.72
2022-10-28T06:58:36.887Z,5.25
2022-10-28T06:59:09.206Z,3.80
2022-10-28T06:59:41.992Z,3.80
2022-10-28T07:00:16.098Z,4.50
2022-10-28T07:00:47.933Z,3.88
2022-10-28T07:01:21.258Z,4.00
2022-10-28T07:01:53.157Z,5.32
2022-10-28T07:02:26.192Z,5.93
2022-10-28T07:02:58.601Z,3.95
2022-10-28T07:03:32.823Z,3.10
2022-10-28T07:04:05.795Z,3.65
2022-10-28T07:04:37.623Z,4.15
2022-10-28T07:05:09.686Z,4.55
2022-10-28T07:05:42.584Z,3.42
2022-10-28T07:06:16.615Z,2.95
2022-10-28T07:06:49.935Z,3.15
2022-10-28T07:07:24.854Z,3.65
2022-10-28T07:07:56.969Z,4.18
2022-10-28T07:08:30.265Z,3.65
2022-10-28T07:09:02.064Z,3.30
2022-10-28T07:09:36.464Z,3.97
2022-10-28T07:10:08.499Z,3.25
2022-10-28T07:10:41.368Z,3.47
2022-10-28T07:11:13.146Z,3.47
2022-10-28T07:11:52.301Z,2.97
2022-10-28T07:12:28.170Z,4.10
2022-10-28T07:12:59.935Z,3.08
2022-10-28T07:13:31.729Z,3.17
2022-10-28T07:14:04.459Z,3.53
2022-10-28T07:14:36.237Z,3.90
2022-10-28T07:15:09.604Z,3.63
2022-10-28T07:15:42.335Z,3.00
2022-10-28T07:16:14.115Z,3.10
2022-10-28T07:16:45.887Z,3.85
2022-10-28T07:17:18.653Z,4.05
2022-10-28T07:17:53.254Z,4.13
2022-10-28T07:18:27.873Z,4.50
2022-10-28T07:18:59.692Z,4.80
2022-10-28T07:19:32.605Z,5.40
2022-10-28T07:20:05.140Z,4.10
2022-10-28T07:20:36.955Z,3.58
2022-10-28T07:21:09.683Z,3.78
2022-10-28T07:21:42.924Z,3.65
2022-10-28T07:22:15.733Z,3.85
2022-10-28T07:22:47.522Z,3.42
2022-10-28T07:23:19.883Z,3.85
2022-10-28T07:23:52.636Z,2.90
2022-10-28T07:24:24.660Z,3.40
2022-10-28T07:24:57.415Z,3.38
2022-10-28T07:25:30.566Z,3.08
2022-10-28T07:26:03.441Z,4.28
2022-10-28T07:26:35.248Z,3.90
2022-10-28T07:27:08.007Z,3.25
2022-10-28T07:27:40.810Z,4.75
2022-10-28T07:28:12.601Z,4.05
2022-10-28T07:28:45.343Z,2.70
2022-10-28T07:29:17.515Z,3.15
2022-10-28T07:29:50.287Z,2.60
2022-10-28T07:30:22.048Z,4.18
2022-10-28T07:30:54.032Z,2.83
2022-10-28T07:31:27.661Z,3.45
2022-10-28T07:31:59.472Z,3.20
2022-10-28T07:32:33.153Z,2.65
2022-10-28T07:33:05.753Z,3.95
2022-10-28T07:33:38.557Z,2.60
2022-10-28T07:34:10.511Z,2.22
2022-10-28T07:34:43.255Z,2.80
2022-10-28T07:35:15.253Z,2.90
2022-10-28T07:35:47.056Z,2.47
2022-10-28T07:36:20.335Z,2.85
2022-10-28T07:36:54.868Z,3.80
2022-10-28T07:37:26.683Z,2.85